Terminal Aerodrome Forecast
Issued by NWS

Current Version | Previous Version | Text Only | Print | Product List | Glossary On
Versions: 1 2 3 4 5 6 7 8 9 10 11 12 13 14 15 16 17
000
FTUS45 KABQ 011740
TAFSAF
TAF
KSAF 011740Z 0118/0218 24007KT P6SM SCT100
     FM011900 24007KT P6SM VCTS SCT060CB BKN090
      TEMPO 0120/0123 VRB15G27KT TSRA BKN060CB
     FM020100 04008KT P6SM VCSH SCT050 BKN080
     FM020600 03005KT P6SM BKN080=

USA.gov is the U.S. government's official web portal to all federal, state and local government web resources and services.